Time;durP1;ratioP1;P1;durP2;ratioP2;P2;SDS_P1;SDS_P2;PMS_P1;PMS_P2;Temp;Humidity;BMP_temperature;BMP_pressure;BME280_temperature;BME280_humidity;BME280_pressure;Samples;Min_cycle;Max_cycle;Signal;HPM_P1;HPM_P2
2022/04/10 00:00:21;;;;;;;10.50;9.50;;;;;;;11.85;55.73;100315.88;2557509;23;20153;-65
2022/04/10 00:01:21;;;;;;;10.30;9.47;;;;;;;12.34;55.82;100386.41;2570307;23;20152;-65
2022/04/10 00:02:22;;;;;;;10.23;9.33;;;;;;;12.12;56.03;100358.56;2557315;23;20223;-64
2022/04/10 00:03:23;;;;;;;9.77;8.87;;;;;;;12.05;56.52;100385.81;2557144;23;20216;-65
2022/04/10 00:04:24;;;;;;;10.47;9.57;;;;;;;12.04;56.71;100389.81;2570703;23;20153;-65
2022/04/10 00:05:24;;;;;;;10.47;9.63;;;;;;;11.97;56.68;100373.38;2570640;23;20438;-65
2022/04/10 00:06:25;;;;;;;10.17;9.30;;;;;;;12.15;56.72;100384.69;2570448;23;20149;-66
2022/04/10 00:07:25;;;;;;;10.63;9.63;;;;;;;12.18;56.42;100387.31;2570169;23;20168;-65
2022/04/10 00:08:26;;;;;;;10.53;9.63;;;;;;;12.22;56.47;100379.66;2570612;23;20155;-66
2022/04/10 00:09:26;;;;;;;10.70;9.80;;;;;;;12.31;56.13;100378.97;2570647;23;20178;-66
2022/04/10 00:10:27;;;;;;;10.63;9.57;;;;;;;11.11;55.93;100212.88;2570666;23;20478;-65
2022/04/10 00:11:29;;;;;;;10.30;9.40;;;;;;;12.32;56.08;100389.63;2570287;23;20149;-65
2022/04/10 00:12:33;;;;;;;10.97;10.00;;;;;;;12.31;56.08;100381.72;2557347;23;20154;-65
2022/04/10 00:13:34;;;;;;;11.13;10.07;;;;;;;12.32;55.99;100386.06;2557727;23;20369;-65
2022/04/10 00:14:34;;;;;;;12.00;10.67;;;;;;;12.30;55.81;100369.84;2570433;23;20968;-66
2022/04/10 00:15:35;;;;;;;11.33;10.23;;;;;;;12.38;55.84;100376.72;2570769;23;20149;-66
2022/04/10 00:16:35;;;;;;;10.37;9.47;;;;;;;12.35;55.88;100380.38;2570503;23;20674;-66
2022/04/10 00:17:36;;;;;;;10.43;9.53;;;;;;;12.35;56.03;100383.16;2570190;23;20160;-65
2022/04/10 00:18:37;;;;;;;10.33;9.43;;;;;;;12.25;55.84;100370.41;2570462;23;20147;-65
2022/04/10 00:19:39;;;;;;;10.60;9.70;;;;;;;12.41;56.09;100395.25;2570462;23;20478;-65
2022/04/10 00:20:40;;;;;;;11.03;10.13;;;;;;;12.43;56.00;100390.03;2570422;23;20426;-65
2022/04/10 00:21:42;;;;;;;10.50;9.60;;;;;;;12.44;55.87;100386.00;2570196;23;20450;-66
2022/04/10 00:22:47;;;;;;;11.00;10.10;;;;;;;12.49;55.72;100387.44;2557072;23;20174;-65
2022/04/10 00:23:47;;;;;;;10.73;9.87;;;;;;;11.70;56.05;100257.28;2557780;23;20436;-66
2022/04/10 00:24:48;;;;;;;9.97;9.07;;;;;;;12.38;56.21;100376.72;2570485;23;20433;-66
2022/04/10 00:25:48;;;;;;;10.20;9.20;;;;;;;12.33;55.94;100365.38;2570448;23;20173;-65
2022/04/10 00:26:49;;;;;;;9.80;9.00;;;;;;;12.34;55.93;100369.72;2570212;23;20602;-65
2022/04/10 00:27:49;;;;;;;10.97;9.97;;;;;;;12.48;55.78;100381.13;2570423;23;20156;-66
2022/04/10 00:28:53;;;;;;;10.47;9.57;;;;;;;12.47;55.56;100384.34;2570479;23;20148;-66
2022/04/10 00:29:54;;;;;;;10.53;9.70;;;;;;;12.49;55.79;100382.66;2570416;23;20500;-66
2022/04/10 00:30:54;;;;;;;10.37;9.47;;;;;;;12.35;55.70;100349.81;2570297;23;20394;-66
2022/04/10 00:31:55;;;;;;;10.50;9.50;;;;;;;12.34;55.62;100353.81;2570513;23;20154;-66
2022/04/10 00:32:56;;;;;;;10.27;9.37;;;;;;;12.51;55.55;100382.97;2570565;23;20153;-66
2022/04/10 00:33:56;;;;;;;11.00;9.90;;;;;;;12.50;55.35;100375.13;2570371;23;20490;-66
2022/04/10 00:34:57;;;;;;;10.27;9.37;;;;;;;12.46;55.54;100371.69;2570561;23;20150;-67
2022/04/10 00:35:57;;;;;;;10.97;9.97;;;;;;;12.40;55.64;100371.47;2570606;23;20639;-66
2022/04/10 00:36:58;;;;;;;10.30;9.40;;;;;;;12.44;55.49;100363.00;2570250;23;20187;-66
2022/04/10 00:37:58;;;;;;;11.23;10.23;;;;;;;12.40;55.59;100359.59;2570667;23;20155;-66
2022/04/10 00:39:00;;;;;;;11.40;10.37;;;;;;;12.33;55.69;100348.72;2557185;23;20193;-66
2022/04/10 00:40:01;;;;;;;12.70;11.50;;;;;;;12.22;55.83;100345.53;2557355;23;20627;-66
2022/04/10 00:41:02;;;;;;;13.23;12.03;;;;;;;12.06;56.15;100327.03;2570279;23;20376;-66
2022/04/10 00:42:02;;;;;;;11.73;10.63;;;;;;;12.10;56.43;100335.25;2570390;23;20376;-66
2022/04/10 00:43:03;;;;;;;12.23;11.13;;;;;;;11.55;56.28;100255.41;2570141;23;20189;-66
2022/04/10 00:44:11;;;;;;;12.17;11.07;;;;;;;11.99;56.27;100323.72;2570658;23;20483;-66
2022/04/10 00:45:11;;;;;;;12.67;11.57;;;;;;;11.96;56.46;100336.50;2570482;23;20202;-66
2022/04/10 00:46:12;;;;;;;13.43;12.13;;;;;;;11.90;56.61;100340.28;2570550;23;20385;-66
2022/04/10 00:47:13;;;;;;;13.67;12.50;;;;;;;11.86;56.74;100339.63;2570092;23;20176;-66
2022/04/10 00:48:14;;;;;;;13.07;11.87;;;;;;;11.89;56.60;100341.53;2570222;23;20156;-66
2022/04/10 00:49:14;;;;;;;13.37;12.17;;;;;;;11.81;57.03;100343.75;2570504;23;20379;-66
2022/04/10 00:50:16;;;;;;;13.87;12.63;;;;;;;11.37;57.14;100271.88;2570445;23;20181;-66
2022/04/10 00:52:36;;;;;;;14.73;13.40;;;;;;;11.77;56.75;100350.63;2570407;23;20698;-66
2022/04/10 00:53:38;;;;;;;15.20;13.80;;;;;;;11.73;57.10;100356.31;2570063;23;20383;-66
2022/04/10 00:54:38;;;;;;;14.93;13.63;;;;;;;10.70;57.36;100224.06;2570567;23;20916;-66
2022/04/10 00:55:39;;;;;;;16.07;14.63;;;;;;;11.59;57.52;100353.22;2570359;23;20374;-67
2022/04/10 00:56:40;;;;;;;16.03;14.53;;;;;;;10.96;57.18;100294.19;2570151;23;20202;-66
2022/04/10 00:57:41;;;;;;;16.90;15.30;;;;;;;10.87;57.66;100278.19;2570249;23;20662;-66
2022/04/10 00:58:42;;;;;;;18.20;16.43;;;;;;;11.51;57.50;100374.06;2570317;23;20379;-65
2022/04/10 00:59:42;;;;;;;17.40;15.90;;;;;;;11.43;57.52;100373.50;2570219;23;20455;-65
2022/04/10 01:00:43;;;;;;;18.33;16.37;;;;;;;10.55;57.79;100261.75;2570284;23;20144;-65
2022/04/10 01:01:45;;;;;;;18.80;17.00;;;;;;;11.38;57.79;100398.25;2569846;23;20495;-66
2022/04/10 01:02:46;;;;;;;18.73;16.93;;;;;;;11.02;57.67;100309.03;2570188;23;20156;-66
2022/04/10 01:03:46;;;;;;;19.10;17.40;;;;;;;11.39;57.62;100370.09;2569902;23;20518;-66
2022/04/10 01:04:47;;;;;;;19.57;17.67;;;;;;;11.49;57.57;100380.06;2570281;23;20195;-66
2022/04/10 01:05:48;;;;;;;19.40;17.40;;;;;;;11.52;57.15;100370.84;2570215;23;20153;-66
2022/04/10 01:06:50;;;;;;;20.17;18.27;;;;;;;11.38;57.34;100342.78;2570236;23;20149;-66
2022/04/10 01:07:51;;;;;;;21.23;19.10;;;;;;;11.50;57.16;100367.75;2570289;23;20183;-66
2022/04/10 01:08:53;;;;;;;19.63;17.73;;;;;;;11.49;57.36;100363.44;2570322;23;20388;-67
2022/04/10 01:09:55;;;;;;;20.90;18.90;;;;;;;11.38;57.57;100351.84;2570210;23;20159;-66
2022/04/10 01:10:56;;;;;;;19.83;17.97;;;;;;;11.49;57.39;100368.19;2570204;23;20418;-66
2022/04/10 01:11:57;;;;;;;20.03;18.17;;;;;;;10.51;57.33;100236.13;2570176;23;20380;-66
2022/04/10 01:12:58;;;;;;;21.17;19.03;;;;;;;11.51;57.30;100362.97;2570305;23;20711;-66
2022/04/10 01:14:00;;;;;;;19.50;17.70;;;;;;;11.38;57.28;100342.78;2569999;23;20461;-66
2022/04/10 01:15:02;;;;;;;20.07;18.20;;;;;;;10.70;57.35;100231.59;2570507;23;20779;-66
2022/04/10 01:16:03;;;;;;;21.03;18.93;;;;;;;11.23;57.04;100309.13;2570425;23;20422;-66
2022/04/10 01:17:07;;;;;;;20.47;18.37;;;;;;;11.45;57.29;100337.00;2570045;23;20387;-66
2022/04/10 01:18:10;;;;;;;19.90;18.00;;;;;;;10.94;57.00;100243.94;2557067;23;20157;-67
2022/04/10 01:19:11;;;;;;;20.40;18.47;;;;;;;11.55;57.30;100349.75;2557541;23;20431;-66
2022/04/10 01:20:12;;;;;;;22.10;20.00;;;;;;;11.53;56.92;100338.34;2557087;23;20402;-66
2022/04/10 01:21:21;;;;;;;20.90;18.87;;;;;;;11.48;57.21;100336.13;2557199;23;20376;-67
2022/04/10 01:22:30;;;;;;;21.67;19.57;;;;;;;10.98;57.19;100250.94;2570339;23;20145;-66
2022/04/10 01:23:31;;;;;;;20.80;18.80;;;;;;;11.43;57.21;100331.13;2570231;23;20363;-67
2022/04/10 01:24:39;;;;;;;20.43;18.33;;;;;;;11.41;57.27;100333.53;2570314;23;20371;-66
2022/04/10 01:25:40;;;;;;;20.77;18.73;;;;;;;11.33;57.50;100335.78;2556894;23;20761;-66
2022/04/10 01:26:42;;;;;;;21.27;19.27;;;;;;;10.85;57.87;100283.41;2557036;23;20474;-66
2022/04/10 01:27:43;;;;;;;21.93;19.83;;;;;;;11.15;58.42;100343.88;2570408;23;20171;-66
2022/04/10 01:29:01;;;;;;;21.17;19.07;;;;;;;11.23;57.82;100345.19;2570301;23;20383;-67
2022/04/10 01:30:04;;;;;;;21.97;19.67;;;;;;;11.21;57.85;100349.63;2570268;23;20160;-66
2022/04/10 01:31:05;;;;;;;20.63;18.63;;;;;;;11.26;57.86;100357.41;2570138;23;20384;-66
2022/04/10 01:32:06;;;;;;;20.77;18.63;;;;;;;10.10;58.15;100204.91;2570227;23;20390;-66
2022/04/10 01:33:06;;;;;;;21.70;19.60;;;;;;;11.11;58.11;100359.06;2569838;23;20527;-66
2022/04/10 01:34:09;;;;;;;21.70;19.67;;;;;;;10.95;58.44;100364.69;2570237;23;20895;-66
2022/04/10 01:35:10;;;;;;;21.73;19.60;;;;;;;10.82;58.92;100363.91;2570127;23;20645;-66
2022/04/10 01:36:11;;;;;;;21.77;19.67;;;;;;;10.72;59.28;100365.75;2570060;23;20386;-66
2022/04/10 01:37:15;;;;;;;22.47;20.27;;;;;;;10.46;59.28;100333.63;2569970;23;20401;-66
2022/04/10 01:38:16;;;;;;;22.43;20.10;;;;;;;10.56;59.75;100351.94;2570205;23;20156;-66
2022/04/10 01:39:17;;;;;;;23.80;21.17;;;;;;;9.60;59.52;100202.72;2570056;23;20504;-66
2022/04/10 01:40:19;;;;;;;21.70;19.60;;;;;;;10.58;59.79;100368.13;2570083;23;20869;-66
2022/04/10 01:41:20;;;;;;;22.57;20.30;;;;;;;10.55;59.58;100361.47;2556960;23;20543;-66
2022/04/10 01:42:21;;;;;;;23.73;21.43;;;;;;;10.53;59.71;100366.69;2557057;23;20376;-66
2022/04/10 01:43:22;;;;;;;23.20;20.90;;;;;;;10.52;60.25;100376.22;2569892;23;20387;-66
2022/04/10 01:44:22;;;;;;;22.87;20.57;;;;;;;9.70;59.98;100231.31;2570159;23;20387;-66
2022/04/10 01:45:23;;;;;;;23.40;21.00;;;;;;;10.53;59.62;100363.13;2570003;23;20245;-66
2022/04/10 01:46:26;;;;;;;21.50;19.40;;;;;;;10.47;59.79;100368.44;2570107;23;20148;-66
2022/04/10 01:47:27;;;;;;;22.83;20.53;;;;;;;10.40;59.99;100363.09;2569553;23;20498;-67
2022/04/10 01:48:28;;;;;;;23.27;20.87;;;;;;;10.29;60.51;100364.56;2570170;23;20402;-66
2022/04/10 01:49:29;;;;;;;24.07;21.57;;;;;;;10.02;60.04;100320.59;2570195;23;20143;-66
2022/04/10 01:50:30;;;;;;;22.87;20.50;;;;;;;10.35;60.35;100360.84;2570171;23;20400;-66
2022/04/10 01:51:30;;;;;;;22.70;20.50;;;;;;;10.32;60.29;100363.72;2569990;23;20146;-66
2022/04/10 01:52:31;;;;;;;22.00;19.80;;;;;;;10.31;60.24;100367.72;2570000;23;20182;-66
2022/04/10 01:53:32;;;;;;;22.17;19.87;;;;;;;10.29;59.84;100359.03;2556379;23;20255;-67
2022/04/10 01:54:33;;;;;;;23.47;20.13;;;;;;;10.01;59.80;100309.94;2557012;23;20152;-66
2022/04/10 01:55:34;;;;;;;22.37;20.13;;;;;;;9.84;60.05;100294.59;2570233;23;20201;-66
2022/04/10 01:56:34;;;;;;;21.38;19.27;;;;;;;10.23;59.76;100367.13;2570251;23;20371;-66
2022/04/10 01:57:35;;;;;;;21.80;19.60;;;;;;;10.22;60.25;100367.53;2569906;23;20147;-66
2022/04/10 01:58:43;;;;;;;22.07;19.87;;;;;;;10.15;60.19;100378.81;2570209;23;20150;-66
2022/04/10 01:59:44;;;;;;;21.10;19.00;;;;;;;10.18;59.92;100377.94;2569970;23;20243;-66
2022/04/10 02:00:44;;;;;;;23.03;20.77;;;;;;;10.03;60.03;100351.78;2570153;23;20435;-66
2022/04/10 02:01:45;;;;;;;22.27;20.07;;;;;;;10.22;59.96;100392.47;2569738;23;20152;-67
2022/04/10 02:02:45;;;;;;;23.40;21.00;;;;;;;10.23;60.03;100375.41;2570166;23;20664;-66
2022/04/10 02:03:46;;;;;;;22.70;20.40;;;;;;;10.34;59.73;100387.00;2569718;23;20617;-66
2022/04/10 02:04:47;;;;;;;21.13;19.03;;;;;;;9.94;59.41;100310.91;2570187;23;20151;-66
2022/04/10 02:05:48;;;;;;;21.93;19.83;;;;;;;9.64;59.64;100269.00;2569922;23;20923;-67
2022/04/10 02:06:48;;;;;;;21.63;19.53;;;;;;;10.31;59.67;100376.00;2569767;23;20176;-66
2022/04/10 02:07:49;;;;;;;21.70;19.50;;;;;;;10.46;59.36;100386.25;2570052;23;20175;-67
2022/04/10 02:08:50;;;;;;;21.93;19.73;;;;;;;10.49;59.12;100373.53;2570175;23;20232;-67
2022/04/10 02:09:50;;;;;;;22.33;20.23;;;;;;;10.58;59.33;100390.31;2569974;23;20177;-66
2022/04/10 02:10:51;;;;;;;22.43;20.03;;;;;;;9.33;58.70;100195.94;2569946;23;20210;-67
2022/04/10 02:11:51;;;;;;;21.73;19.63;;;;;;;10.16;58.78;100302.84;2569771;23;20148;-66
2022/04/10 02:12:52;;;;;;;22.33;20.13;;;;;;;10.59;58.54;100369.69;2570141;23;20543;-67
2022/04/10 02:13:52;;;;;;;21.50;19.43;;;;;;;10.70;58.40;100376.50;2569514;23;20155;-67
2022/04/10 02:14:53;;;;;;;20.97;18.97;;;;;;;10.45;58.60;100340.38;2570058;23;20495;-66
2022/04/10 02:15:53;;;;;;;21.77;19.63;;;;;;;10.66;58.37;100378.59;2569965;23;20205;-66
2022/04/10 02:16:54;;;;;;;20.70;18.60;;;;;;;10.67;58.25;100371.81;2556387;23;20152;-66
2022/04/10 02:17:54;;;;;;;21.47;19.37;;;;;;;10.45;58.35;100357.00;2556875;23;20832;-66
2022/04/10 02:18:55;;;;;;;22.00;19.90;;;;;;;10.68;58.59;100401.09;2570006;23;20160;-66
2022/04/10 02:19:55;;;;;;;21.60;19.30;;;;;;;10.73;58.45;100403.34;2570160;23;20524;-67
2022/04/10 02:20:56;;;;;;;20.90;18.90;;;;;;;10.68;58.12;100390.03;2569763;23;20681;-66
2022/04/10 02:21:59;;;;;;;20.43;18.43;;;;;;;10.66;58.18;100397.97;2569981;23;20163;-66
2022/04/10 02:23:00;;;;;;;19.83;17.83;;;;;;;10.63;58.45;100398.09;2569581;23;20214;-66
2022/04/10 02:24:00;;;;;;;20.10;18.20;;;;;;;9.82;58.56;100286.72;2570059;23;20371;-66
2022/04/10 02:25:02;;;;;;;19.67;17.73;;;;;;;10.62;58.57;100391.00;2569954;23;20601;-66
2022/04/10 02:26:03;;;;;;;19.63;17.75;;;;;;;10.65;58.24;100393.66;2569613;23;20155;-67
2022/04/10 02:27:04;;;;;;;19.77;17.88;;;;;;;10.65;58.02;100413.06;2569922;23;20182;-66
2022/04/10 02:28:05;;;;;;;19.63;17.77;;;;;;;10.72;57.93;100403.78;2569753;23;20150;-66
2022/04/10 02:29:05;;;;;;;18.50;16.80;;;;;;;10.74;57.81;100407.66;2570151;23;20210;-67
2022/04/10 02:30:07;;;;;;;18.90;17.10;;;;;;;10.78;58.14;100407.56;2570099;23;20155;-66
2022/04/10 02:31:08;;;;;;;19.07;17.17;;;;;;;9.82;57.33;100274.84;2569888;23;20155;-66
2022/04/10 02:32:09;;;;;;;19.33;17.43;;;;;;;10.86;57.54;100417.25;2570008;23;20459;-66
2022/04/10 02:33:09;;;;;;;18.57;16.67;;;;;;;10.92;57.29;100410.69;2569882;23;20371;-66
2022/04/10 02:34:10;;;;;;;18.40;16.60;;;;;;;10.91;57.43;100419.47;2570175;23;20156;-66
2022/04/10 02:35:11;;;;;;;19.30;17.37;;;;;;;10.93;57.31;100423.38;2570097;23;20448;-66
2022/04/10 02:36:12;;;;;;;18.23;16.43;;;;;;;10.92;57.15;100424.56;2570090;23;20158;-66
2022/04/10 02:37:13;;;;;;;19.13;17.33;;;;;;;10.20;57.58;100325.69;2569651;23;20921;-66
2022/04/10 02:38:16;;;;;;;20.23;18.23;;;;;;;10.83;57.61;100424.44;2569951;23;20726;-67
2022/04/10 02:39:16;;;;;;;19.40;17.50;;;;;;;10.86;57.07;100415.25;2569957;23;20593;-66
2022/04/10 02:40:18;;;;;;;19.20;17.40;;;;;;;10.87;57.37;100416.78;2570087;23;20489;-66
2022/04/10 02:41:18;;;;;;;19.13;17.23;;;;;;;10.69;57.50;100405.44;2569726;23;20189;-66
2022/04/10 02:42:19;;;;;;;18.63;16.93;;;;;;;10.70;57.60;100420.84;2569921;23;20386;-66
2022/04/10 02:43:19;;;;;;;20.37;18.37;;;;;;;10.61;58.37;100417.91;2569882;23;20645;-66
2022/04/10 02:44:20;;;;;;;20.43;18.53;;;;;;;10.59;58.28;100416.78;2569969;23;20983;-66
2022/04/10 02:45:21;;;;;;;20.17;18.17;;;;;;;10.57;58.39;100411.72;2569949;23;20218;-66
2022/04/10 02:46:21;;;;;;;19.87;17.90;;;;;;;10.60;58.35;100415.59;2570000;23;20190;-66
2022/04/10 02:47:22;;;;;;;20.47;18.37;;;;;;;10.19;58.15;100346.28;2569751;23;20542;-66
2022/04/10 02:48:22;;;;;;;22.13;20.03;;;;;;;10.52;58.59;100417.78;2570169;23;20173;-66
2022/04/10 02:49:23;;;;;;;21.37;19.20;;;;;;;10.33;58.54;100404.03;2570051;23;20495;-66
2022/04/10 02:50:24;;;;;;;21.57;19.43;;;;;;;10.48;58.93;100424.63;2570044;23;20220;-66
2022/04/10 02:51:25;;;;;;;22.13;20.00;;;;;;;10.39;58.66;100419.69;2569884;23;20155;-66
2022/04/10 02:52:25;;;;;;;21.13;19.03;;;;;;;10.38;58.60;100406.28;2569974;23;20413;-66
2022/04/10 02:53:26;;;;;;;22.37;20.17;;;;;;;10.41;58.99;100417.25;2569702;23;20150;-66
2022/04/10 02:54:26;;;;;;;21.23;19.23;;;;;;;10.07;58.79;100378.22;2570081;23;20159;-67
2022/04/10 02:55:27;;;;;;;22.30;20.00;;;;;;;10.38;59.17;100423.69;2569940;23;20186;-66
2022/04/10 02:56:27;;;;;;;22.73;20.53;;;;;;;10.42;59.32;100421.63;2569969;23;20155;-66
2022/04/10 02:57:28;;;;;;;22.00;19.83;;;;;;;10.47;58.69;100429.41;2569598;23;20148;-66
2022/04/10 02:58:28;;;;;;;22.20;19.87;;;;;;;10.12;58.49;100372.16;2569919;23;20158;-66
2022/04/10 02:59:29;;;;;;;20.73;18.70;;;;;;;10.46;58.27;100407.66;2569841;23;20593;-66
2022/04/10 03:00:30;;;;;;;18.90;17.00;;;;;;;10.55;57.59;100432.75;2569984;23;20157;-66
2022/04/10 03:01:30;;;;;;;19.50;17.57;;;;;;;9.65;57.93;100299.03;2569865;23;20595;-66
2022/04/10 03:02:31;;;;;;;20.03;18.03;;;;;;;10.50;58.33;100434.03;2556674;23;20583;-66
2022/04/10 03:03:31;;;;;;;20.37;18.27;;;;;;;10.56;58.08;100439.84;2556716;23;20515;-66
2022/04/10 03:04:32;;;;;;;19.17;17.27;;;;;;;10.51;58.04;100445.91;2569833;23;20155;-66
2022/04/10 03:05:32;;;;;;;19.43;17.50;;;;;;;10.39;58.02;100433.56;2569883;23;20151;-66
2022/04/10 03:06:33;;;;;;;20.73;18.73;;;;;;;10.43;57.86;100444.53;2570125;23;20603;-66
2022/04/10 03:07:33;;;;;;;19.73;17.73;;;;;;;10.45;58.16;100447.66;2569623;23;20604;-66
2022/04/10 03:08:34;;;;;;;19.27;16.77;;;;;;;10.41;58.04;100449.75;2570065;23;20494;-67
2022/04/10 03:09:34;;;;;;;18.10;16.30;;;;;;;9.71;57.76;100326.91;2570007;23;20152;-66
2022/04/10 03:10:35;;;;;;;19.30;17.30;;;;;;;10.10;58.17;100434.72;2556794;23;20474;-67
2022/04/10 03:11:36;;;;;;;18.87;16.87;;;;;;;9.51;58.19;100340.84;2556441;23;20614;-67
2022/04/10 03:12:36;;;;;;;18.70;16.80;;;;;;;9.56;58.35;100351.41;2556781;23;20186;-66
2022/04/10 03:13:37;;;;;;;20.23;17.63;;;;;;;10.14;58.30;100429.88;2556532;23;20159;-67
2022/04/10 03:14:37;;;;;;;19.17;17.20;;;;;;;10.05;58.59;100418.63;2556867;23;20159;-67
2022/04/10 03:15:38;;;;;;;18.73;16.83;;;;;;;10.31;58.26;100459.09;2556762;23;20172;-67
2022/04/10 03:16:38;;;;;;;16.57;14.87;;;;;;;10.23;57.64;100449.41;2569873;23;20595;-67
2022/04/10 03:17:39;;;;;;;17.70;15.93;;;;;;;9.72;58.01;100372.75;2556630;23;20240;-67
2022/04/10 03:18:39;;;;;;;17.73;15.90;;;;;;;9.39;57.93;100311.09;2556854;23;20185;-67
2022/04/10 03:19:40;;;;;;;18.10;16.30;;;;;;;10.25;58.17;100435.91;2569618;23;20209;-67
2022/04/10 03:20:40;;;;;;;18.00;16.10;;;;;;;10.28;58.09;100446.91;2570075;23;20150;-67
2022/04/10 03:21:41;;;;;;;16.50;14.73;;;;;;;10.23;57.25;100424.47;2569706;23;20154;-67
2022/04/10 03:22:41;;;;;;;17.07;15.33;;;;;;;10.25;57.52;100441.47;2569738;23;20149;-67
2022/04/10 03:23:42;;;;;;;16.07;14.37;;;;;;;10.31;57.33;100442.47;2569535;23;20619;-67
2022/04/10 03:24:42;;;;;;;15.10;13.60;;;;;;;10.31;57.07;100461.88;2569957;23;20149;-67
2022/04/10 03:25:43;;;;;;;15.17;13.67;;;;;;;10.24;57.04;100476.66;2569647;23;20159;-67
2022/04/10 03:26:43;;;;;;;14.50;13.07;;;;;;;10.22;57.35;100479.09;2569595;23;20155;-67
2022/04/10 03:27:44;;;;;;;14.80;13.40;;;;;;;10.25;57.51;100469.16;2569846;23;20151;-67
2022/04/10 03:28:44;;;;;;;15.00;13.50;;;;;;;10.11;57.03;100448.13;2569946;23;20156;-67
2022/04/10 03:29:45;;;;;;;14.70;13.20;;;;;;;10.24;57.20;100460.06;2569882;23;20552;-66
2022/04/10 03:30:45;;;;;;;14.47;13.07;;;;;;;10.05;56.70;100427.69;2569917;23;20175;-67
2022/04/10 03:31:46;;;;;;;13.60;12.27;;;;;;;10.21;56.74;100463.72;2569647;23;20183;-67
2022/04/10 03:32:46;;;;;;;13.90;12.60;;;;;;;10.22;56.86;100464.47;2569751;23;20157;-67
2022/04/10 03:33:47;;;;;;;12.70;11.40;;;;;;;10.11;56.98;100470.28;2569321;23;20499;-67
2022/04/10 03:34:48;;;;;;;10.70;9.40;;;;;;;10.12;56.27;100471.84;2556572;23;20160;-67
2022/04/10 03:35:48;;;;;;;11.30;10.20;;;;;;;9.94;56.36;100454.81;2556682;23;20154;-67
2022/04/10 03:36:49;;;;;;;11.37;10.13;;;;;;;10.14;56.63;100479.72;2569798;23;20223;-66
2022/04/10 03:37:49;;;;;;;10.50;9.57;;;;;;;10.14;56.47;100474.19;2570721;23;20545;-66
2022/04/10 03:38:50;;;;;;;10.90;9.80;;;;;;;10.16;56.67;100477.28;2570591;23;20184;-67
2022/04/10 03:39:50;;;;;;;10.13;9.13;;;;;;;9.62;56.54;100382.88;2570475;23;20149;-66
2022/04/10 03:40:51;;;;;;;11.40;9.23;;;;;;;10.14;56.20;100477.72;2570848;23;20156;-66
2022/04/10 03:41:52;;;;;;;11.27;8.97;;;;;;;9.61;56.69;100389.63;2570192;23;20156;-66
2022/04/10 03:42:52;;;;;;;9.88;8.88;;;;;;;10.17;56.37;100485.16;2570613;23;20153;-67
2022/04/10 03:43:53;;;;;;;9.40;8.47;;;;;;;9.05;56.32;100337.56;2570300;23;20149;-67
2022/04/10 03:44:53;;;;;;;10.23;7.73;;;;;;;10.21;56.45;100477.56;2570451;23;20148;-67
2022/04/10 03:45:54;;;;;;;10.73;7.43;;;;;;;10.22;56.08;100483.84;2570172;23;20217;-67
2022/04/10 03:46:54;;;;;;;8.93;7.90;;;;;;;10.26;56.15;100474.22;2570492;23;20156;-66
2022/04/10 03:47:55;;;;;;;8.97;7.40;;;;;;;10.25;55.75;100500.38;2570572;23;20155;-66
2022/04/10 03:48:55;;;;;;;8.37;7.10;;;;;;;10.31;55.57;100484.78;2570562;23;20155;-67
2022/04/10 03:49:56;;;;;;;7.63;6.87;;;;;;;10.28;55.63;100482.91;2570649;23;20179;-67
2022/04/10 03:50:56;;;;;;;7.50;6.80;;;;;;;10.29;55.17;100490.00;2570418;23;20165;-67
2022/04/10 03:51:57;;;;;;;7.13;6.37;;;;;;;10.26;55.08;100479.00;2570661;23;20149;-66
2022/04/10 03:52:57;;;;;;;7.27;6.57;;;;;;;10.39;55.20;100499.25;2570331;23;20553;-66
2022/04/10 03:53:58;;;;;;;6.60;5.77;;;;;;;10.32;55.11;100513.28;2570418;23;20591;-67
2022/04/10 03:54:58;;;;;;;6.83;5.50;;;;;;;9.68;54.91;100414.34;2570608;23;20152;-66
2022/04/10 03:55:59;;;;;;;6.23;4.90;;;;;;;10.21;54.72;100501.69;2570593;23;20595;-66
2022/04/10 03:57:00;;;;;;;5.17;4.67;;;;;;;10.21;55.12;100510.00;2556959;23;20173;-67
2022/04/10 03:58:00;;;;;;;4.33;3.93;;;;;;;10.22;54.59;100506.00;2557376;23;20169;-65
2022/04/10 03:59:01;;;;;;;4.20;3.30;;;;;;;10.19;54.46;100498.59;2570402;23;20206;-66
2022/04/10 04:00:02;;;;;;;5.67;2.87;;;;;;;10.13;54.70;100483.69;2570543;23;20152;-66
2022/04/10 04:01:02;;;;;;;3.87;3.43;;;;;;;10.18;54.42;100497.78;2570304;23;20227;-66
2022/04/10 04:02:03;;;;;;;3.10;2.80;;;;;;;9.20;54.20;100341.59;2570532;23;20163;-66
2022/04/10 04:03:04;;;;;;;4.60;2.80;;;;;;;9.76;54.14;100423.25;2570215;23;20662;-66
2022/04/10 04:04:04;;;;;;;3.67;2.57;;;;;;;10.24;54.24;100484.22;2570553;23;20209;-66
2022/04/10 04:05:07;;;;;;;3.47;2.40;;;;;;;10.28;53.85;100484.88;2570648;23;20599;-66
2022/04/10 04:06:08;;;;;;;3.20;2.25;;;;;;;10.17;54.09;100499.00;2557271;23;20157;-67
2022/04/10 04:07:08;;;;;;;2.40;1.97;;;;;;;9.85;53.49;100437.28;2557178;23;20153;-67
2022/04/10 04:08:15;;;;;;;2.10;1.50;;;;;;;10.22;53.34;100478.31;2570252;23;20156;-66
2022/04/10 04:09:15;;;;;;;2.03;1.30;;;;;;;10.15;53.31;100481.25;2570661;23;20638;-66
2022/04/10 04:10:16;;;;;;;2.00;1.30;;;;;;;10.24;53.56;100503.59;2570561;23;20503;-66
2022/04/10 04:11:16;;;;;;;1.90;1.10;;;;;;;10.24;52.83;100514.69;2570109;23;20346;-66
2022/04/10 04:12:17;;;;;;;1.03;0.90;;;;;;;10.23;53.05;100522.19;2570587;23;20150;-67
2022/04/10 04:13:38;;;;;;;2.37;1.03;;;;;;;10.23;53.21;100515.88;2570013;23;20231;-67
2022/04/10 04:14:39;;;;;;;2.22;1.00;;;;;;;10.19;53.20;100517.97;2570480;23;20595;-66
2022/04/10 04:15:40;;;;;;;1.05;0.82;;;;;;;10.13;53.15;100534.31;2570387;23;20144;-67
2022/04/10 04:16:41;;;;;;;0.97;0.77;;;;;;;9.97;53.38;100519.63;2570150;23;20642;-67
2022/04/10 04:17:44;;;;;;;1.58;0.80;;;;;;;10.02;53.68;100522.66;2570269;23;20508;-66
2022/04/10 04:18:45;;;;;;;0.80;0.70;;;;;;;10.09;53.35;100521.75;2570568;23;20203;-66
2022/04/10 04:19:49;;;;;;;0.80;0.70;;;;;;;10.13;53.12;100519.66;2570564;23;20171;-66
2022/04/10 04:21:09;;;;;;;2.08;0.60;;;;;;;10.10;53.89;100523.31;2570552;23;20183;-67
2022/04/10 04:22:10;;;;;;;1.35;0.80;;;;;;;9.98;54.12;100513.66;2570445;23;20173;-67
2022/04/10 04:23:10;;;;;;;2.00;0.70;;;;;;;10.06;53.84;100525.38;2570002;23;20167;-66
2022/04/10 04:24:11;;;;;;;3.30;0.97;;;;;;;10.07;54.42;100535.25;2557059;23;20392;-67
2022/04/10 04:25:11;;;;;;;1.33;0.60;;;;;;;9.99;54.10;100531.06;2557186;23;20153;-66
2022/04/10 04:26:12;;;;;;;3.43;0.90;;;;;;;9.14;54.49;100410.44;2570497;23;20153;-66
2022/04/10 04:27:12;;;;;;;1.10;0.83;;;;;;;9.92;54.50;100532.00;2570083;23;20158;-66
2022/04/10 04:28:13;;;;;;;1.03;0.80;;;;;;;9.94;54.79;100535.09;2570523;23;20240;-66
2022/04/10 04:29:13;;;;;;;1.47;0.70;;;;;;;9.93;54.40;100550.16;2570514;23;20149;-66
2022/04/10 04:30:14;;;;;;;1.63;0.77;;;;;;;9.33;54.44;100478.75;2570366;23;20227;-66
2022/04/10 04:31:14;;;;;;;0.87;0.77;;;;;;;9.76;55.13;100543.03;2570241;23;20156;-66
2022/04/10 04:32:15;;;;;;;0.97;0.63;;;;;;;9.72;55.42;100544.31;2570534;23;20231;-66
2022/04/10 04:33:16;;;;;;;2.27;0.70;;;;;;;9.46;55.11;100537.75;2570271;23;20153;-66
2022/04/10 04:34:17;;;;;;;1.10;0.70;;;;;;;9.56;55.67;100547.03;2570348;23;20238;-66
2022/04/10 04:35:18;;;;;;;1.00;0.57;;;;;;;9.56;55.83;100574.69;2570366;23;20152;-66
2022/04/10 04:36:18;;;;;;;1.03;0.70;;;;;;;9.51;55.75;100559.38;2557185;23;20163;-67
2022/04/10 04:37:19;;;;;;;1.10;0.80;;;;;;;9.37;56.23;100547.84;2556911;23;20188;-66
2022/04/10 04:38:28;;;;;;;1.37;0.73;;;;;;;8.68;56.36;100478.88;2570402;23;20475;-66
2022/04/10 04:39:28;;;;;;;2.08;0.85;;;;;;;9.39;56.37;100571.06;2570429;23;20615;-66
2022/04/10 04:40:29;;;;;;;1.97;0.87;;;;;;;9.48;57.70;100567.75;2570489;23;20557;-66
2022/04/10 04:41:29;;;;;;;1.50;0.90;;;;;;;9.42;57.80;100555.59;2570369;23;20148;-66